sensor_id;sensor_type;location;lat;lon;timestamp;P1;durP1;ratioP1;P2;durP2;ratioP2
22435;SDS011;11385;50.822;4.324;2023-12-22T00:01:12;8.98;;;2.20;;
22435;SDS011;11385;50.822;4.324;2023-12-22T00:03:43;12.20;;;2.58;;
22435;SDS011;11385;50.822;4.324;2023-12-22T00:06:11;8.38;;;1.57;;
22435;SDS011;11385;50.822;4.324;2023-12-22T00:08:38;10.23;;;2.12;;
22435;SDS011;11385;50.822;4.324;2023-12-22T00:11:05;9.38;;;2.08;;
22435;SDS011;11385;50.822;4.324;2023-12-22T00:13:32;13.08;;;1.90;;
22435;SDS011;11385;50.822;4.324;2023-12-22T00:15:59;5.10;;;1.72;;
22435;SDS011;11385;50.822;4.324;2023-12-22T00:18:26;12.55;;;1.92;;
22435;SDS011;11385;50.822;4.324;2023-12-22T00:20:53;10.25;;;1.60;;
22435;SDS011;11385;50.822;4.324;2023-12-22T00:23:20;4.10;;;1.17;;
22435;SDS011;11385;50.822;4.324;2023-12-22T00:25:46;9.10;;;1.80;;
22435;SDS011;11385;50.822;4.324;2023-12-22T00:28:13;9.38;;;1.15;;
22435;SDS011;11385;50.822;4.324;2023-12-22T00:30:40;4.47;;;0.93;;
22435;SDS011;11385;50.822;4.324;2023-12-22T00:33:07;7.75;;;1.30;;
22435;SDS011;11385;50.822;4.324;2023-12-22T00:35:33;7.03;;;1.10;;
22435;SDS011;11385;50.822;4.324;2023-12-22T00:38:01;6.65;;;1.55;;
22435;SDS011;11385;50.822;4.324;2023-12-22T00:40:28;4.25;;;1.17;;
22435;SDS011;11385;50.822;4.324;2023-12-22T00:42:54;8.58;;;1.50;;
22435;SDS011;11385;50.822;4.324;2023-12-22T00:45:22;6.70;;;1.85;;
22435;SDS011;11385;50.822;4.324;2023-12-22T00:47:49;7.72;;;1.47;;
22435;SDS011;11385;50.822;4.324;2023-12-22T00:50:15;8.48;;;1.82;;
22435;SDS011;11385;50.822;4.324;2023-12-22T00:52:42;9.08;;;1.82;;
22435;SDS011;11385;50.822;4.324;2023-12-22T00:55:09;9.35;;;1.25;;
22435;SDS011;11385;50.822;4.324;2023-12-22T00:57:36;10.23;;;2.40;;
22435;SDS011;11385;50.822;4.324;2023-12-22T01:00:03;8.83;;;2.22;;
22435;SDS011;11385;50.822;4.324;2023-12-22T01:02:31;14.00;;;2.20;;
22435;SDS011;11385;50.822;4.324;2023-12-22T01:04:58;6.95;;;1.62;;
22435;SDS011;11385;50.822;4.324;2023-12-22T01:07:24;13.78;;;2.80;;
22435;SDS011;11385;50.822;4.324;2023-12-22T01:09:51;14.63;;;2.77;;
22435;SDS011;11385;50.822;4.324;2023-12-22T01:12:18;13.60;;;2.40;;
22435;SDS011;11385;50.822;4.324;2023-12-22T01:14:44;14.38;;;2.45;;
22435;SDS011;11385;50.822;4.324;2023-12-22T01:17:11;17.42;;;2.92;;
22435;SDS011;11385;50.822;4.324;2023-12-22T01:19:38;17.42;;;2.30;;
22435;SDS011;11385;50.822;4.324;2023-12-22T01:22:05;13.32;;;2.00;;
22435;SDS011;11385;50.822;4.324;2023-12-22T01:24:31;15.48;;;2.85;;
22435;SDS011;11385;50.822;4.324;2023-12-22T01:26:58;13.50;;;2.87;;
22435;SDS011;11385;50.822;4.324;2023-12-22T01:29:25;12.50;;;2.40;;
22435;SDS011;11385;50.822;4.324;2023-12-22T01:31:52;12.73;;;2.30;;
22435;SDS011;11385;50.822;4.324;2023-12-22T01:34:19;10.93;;;2.15;;
22435;SDS011;11385;50.822;4.324;2023-12-22T01:36:46;13.80;;;2.22;;
22435;SDS011;11385;50.822;4.324;2023-12-22T01:39:12;17.02;;;1.87;;
22435;SDS011;11385;50.822;4.324;2023-12-22T01:41:39;15.20;;;2.80;;
22435;SDS011;11385;50.822;4.324;2023-12-22T01:44:06;12.95;;;2.12;;
22435;SDS011;11385;50.822;4.324;2023-12-22T01:46:32;9.08;;;2.17;;
22435;SDS011;11385;50.822;4.324;2023-12-22T01:49:00;12.28;;;2.35;;
22435;SDS011;11385;50.822;4.324;2023-12-22T01:51:28;9.73;;;1.70;;
22435;SDS011;11385;50.822;4.324;2023-12-22T01:53:57;16.20;;;2.27;;
22435;SDS011;11385;50.822;4.324;2023-12-22T01:56:24;12.15;;;2.42;;
22435;SDS011;11385;50.822;4.324;2023-12-22T01:58:52;12.47;;;3.05;;
22435;SDS011;11385;50.822;4.324;2023-12-22T02:01:21;11.35;;;2.70;;
22435;SDS011;11385;50.822;4.324;2023-12-22T02:03:50;16.77;;;3.05;;
22435;SDS011;11385;50.822;4.324;2023-12-22T02:06:18;11.30;;;2.55;;
22435;SDS011;11385;50.822;4.324;2023-12-22T02:08:46;15.80;;;2.85;;
22435;SDS011;11385;50.822;4.324;2023-12-22T02:11:14;12.58;;;2.00;;
22435;SDS011;11385;50.822;4.324;2023-12-22T02:13:42;16.07;;;2.50;;
22435;SDS011;11385;50.822;4.324;2023-12-22T02:16:11;14.15;;;2.77;;
22435;SDS011;11385;50.822;4.324;2023-12-22T02:18:44;16.97;;;2.83;;
22435;SDS011;11385;50.822;4.324;2023-12-22T02:21:14;9.53;;;2.08;;
22435;SDS011;11385;50.822;4.324;2023-12-22T02:23:41;9.03;;;2.30;;
22435;SDS011;11385;50.822;4.324;2023-12-22T02:26:11;10.15;;;2.22;;
22435;SDS011;11385;50.822;4.324;2023-12-22T02:28:41;10.95;;;1.32;;
22435;SDS011;11385;50.822;4.324;2023-12-22T02:31:16;9.85;;;1.80;;
22435;SDS011;11385;50.822;4.324;2023-12-22T02:33:45;9.53;;;2.90;;
22435;SDS011;11385;50.822;4.324;2023-12-22T02:36:15;5.12;;;1.20;;
22435;SDS011;11385;50.822;4.324;2023-12-22T02:38:43;7.42;;;1.92;;
22435;SDS011;11385;50.822;4.324;2023-12-22T02:41:12;8.70;;;2.02;;
22435;SDS011;11385;50.822;4.324;2023-12-22T02:43:39;13.40;;;2.25;;
22435;SDS011;11385;50.822;4.324;2023-12-22T02:46:12;11.90;;;2.12;;
22435;SDS011;11385;50.822;4.324;2023-12-22T02:48:40;9.30;;;1.75;;
22435;SDS011;11385;50.822;4.324;2023-12-22T02:51:07;4.30;;;1.05;;
22435;SDS011;11385;50.822;4.324;2023-12-22T02:53:33;10.05;;;1.98;;
22435;SDS011;11385;50.822;4.324;2023-12-22T02:56:00;9.68;;;1.57;;
22435;SDS011;11385;50.822;4.324;2023-12-22T02:58:28;7.50;;;1.70;;
22435;SDS011;11385;50.822;4.324;2023-12-22T03:00:54;6.60;;;1.57;;
22435;SDS011;11385;50.822;4.324;2023-12-22T03:03:21;8.78;;;2.02;;
22435;SDS011;11385;50.822;4.324;2023-12-22T03:05:48;10.20;;;1.72;;
22435;SDS011;11385;50.822;4.324;2023-12-22T03:08:14;8.43;;;1.42;;
22435;SDS011;11385;50.822;4.324;2023-12-22T03:10:41;9.75;;;1.82;;
22435;SDS011;11385;50.822;4.324;2023-12-22T03:13:08;8.13;;;1.82;;
22435;SDS011;11385;50.822;4.324;2023-12-22T03:15:34;10.82;;;2.08;;
22435;SDS011;11385;50.822;4.324;2023-12-22T03:18:01;5.33;;;1.70;;
22435;SDS011;11385;50.822;4.324;2023-12-22T03:20:27;14.23;;;2.58;;
22435;SDS011;11385;50.822;4.324;2023-12-22T03:22:54;13.08;;;2.75;;
22435;SDS011;11385;50.822;4.324;2023-12-22T03:25:21;14.50;;;2.83;;
22435;SDS011;11385;50.822;4.324;2023-12-22T03:27:47;6.20;;;1.50;;
22435;SDS011;11385;50.822;4.324;2023-12-22T03:30:14;17.50;;;2.75;;
22435;SDS011;11385;50.822;4.324;2023-12-22T03:32:41;8.93;;;1.85;;
22435;SDS011;11385;50.822;4.324;2023-12-22T03:35:11;17.35;;;2.65;;
22435;SDS011;11385;50.822;4.324;2023-12-22T03:37:37;13.32;;;2.70;;
22435;SDS011;11385;50.822;4.324;2023-12-22T03:40:04;12.95;;;2.00;;
22435;SDS011;11385;50.822;4.324;2023-12-22T03:42:31;11.38;;;3.05;;
22435;SDS011;11385;50.822;4.324;2023-12-22T03:44:58;12.15;;;2.77;;
22435;SDS011;11385;50.822;4.324;2023-12-22T03:47:25;11.90;;;2.15;;
22435;SDS011;11385;50.822;4.324;2023-12-22T03:49:51;11.57;;;1.50;;
22435;SDS011;11385;50.822;4.324;2023-12-22T03:52:18;11.15;;;1.92;;
22435;SDS011;11385;50.822;4.324;2023-12-22T03:54:45;8.68;;;1.60;;
22435;SDS011;11385;50.822;4.324;2023-12-22T03:57:12;12.53;;;1.80;;
22435;SDS011;11385;50.822;4.324;2023-12-22T03:59:38;6.08;;;1.52;;
22435;SDS011;11385;50.822;4.324;2023-12-22T04:02:05;6.55;;;1.60;;
22435;SDS011;11385;50.822;4.324;2023-12-22T04:04:32;7.30;;;1.42;;
22435;SDS011;11385;50.822;4.324;2023-12-22T04:06:59;15.70;;;2.05;;
22435;SDS011;11385;50.822;4.324;2023-12-22T04:09:26;11.85;;;2.02;;
22435;SDS011;11385;50.822;4.324;2023-12-22T04:11:52;11.38;;;2.17;;
22435;SDS011;11385;50.822;4.324;2023-12-22T04:14:19;14.40;;;2.80;;
22435;SDS011;11385;50.822;4.324;2023-12-22T04:16:46;15.55;;;2.87;;
22435;SDS011;11385;50.822;4.324;2023-12-22T04:19:13;15.38;;;2.85;;
22435;SDS011;11385;50.822;4.324;2023-12-22T04:21:39;15.60;;;3.02;;
22435;SDS011;11385;50.822;4.324;2023-12-22T04:24:06;15.03;;;2.70;;
22435;SDS011;11385;50.822;4.324;2023-12-22T04:26:33;15.32;;;2.42;;
22435;SDS011;11385;50.822;4.324;2023-12-22T04:29:00;13.90;;;2.95;;
22435;SDS011;11385;50.822;4.324;2023-12-22T04:31:26;12.33;;;3.05;;
22435;SDS011;11385;50.822;4.324;2023-12-22T04:33:53;16.07;;;3.25;;
22435;SDS011;11385;50.822;4.324;2023-12-22T04:36:21;9.78;;;1.85;;
22435;SDS011;11385;50.822;4.324;2023-12-22T04:38:48;14.05;;;2.00;;
22435;SDS011;11385;50.822;4.324;2023-12-22T04:41:15;12.47;;;2.47;;
22435;SDS011;11385;50.822;4.324;2023-12-22T04:43:41;14.03;;;3.08;;
22435;SDS011;11385;50.822;4.324;2023-12-22T04:46:08;12.95;;;2.30;;
22435;SDS011;11385;50.822;4.324;2023-12-22T04:48:35;12.55;;;2.60;;
22435;SDS011;11385;50.822;4.324;2023-12-22T04:51:01;11.83;;;2.83;;
22435;SDS011;11385;50.822;4.324;2023-12-22T04:53:28;16.32;;;2.60;;
22435;SDS011;11385;50.822;4.324;2023-12-22T04:55:55;14.45;;;3.55;;
22435;SDS011;11385;50.822;4.324;2023-12-22T04:58:21;14.47;;;3.12;;
22435;SDS011;11385;50.822;4.324;2023-12-22T05:00:48;19.42;;;3.60;;
22435;SDS011;11385;50.822;4.324;2023-12-22T05:03:15;14.30;;;2.50;;
22435;SDS011;11385;50.822;4.324;2023-12-22T05:05:42;21.25;;;3.85;;
22435;SDS011;11385;50.822;4.324;2023-12-22T05:08:08;17.30;;;2.98;;
22435;SDS011;11385;50.822;4.324;2023-12-22T05:10:35;26.33;;;3.30;;
22435;SDS011;11385;50.822;4.324;2023-12-22T05:13:02;23.47;;;4.12;;
22435;SDS011;11385;50.822;4.324;2023-12-22T05:15:29;16.12;;;2.87;;
22435;SDS011;11385;50.822;4.324;2023-12-22T05:17:56;22.13;;;3.50;;
22435;SDS011;11385;50.822;4.324;2023-12-22T05:20:22;18.70;;;3.15;;
22435;SDS011;11385;50.822;4.324;2023-12-22T05:22:49;12.73;;;3.45;;
22435;SDS011;11385;50.822;4.324;2023-12-22T05:25:16;17.10;;;3.67;;
22435;SDS011;11385;50.822;4.324;2023-12-22T05:27:42;22.35;;;3.50;;
22435;SDS011;11385;50.822;4.324;2023-12-22T05:30:09;24.72;;;3.92;;
22435;SDS011;11385;50.822;4.324;2023-12-22T05:32:37;21.57;;;3.47;;
22435;SDS011;11385;50.822;4.324;2023-12-22T05:35:04;22.05;;;3.27;;
22435;SDS011;11385;50.822;4.324;2023-12-22T05:37:31;16.97;;;3.77;;
22435;SDS011;11385;50.822;4.324;2023-12-22T05:39:58;24.25;;;3.40;;
22435;SDS011;11385;50.822;4.324;2023-12-22T05:42:24;20.12;;;3.17;;
22435;SDS011;11385;50.822;4.324;2023-12-22T05:44:51;24.60;;;3.70;;
22435;SDS011;11385;50.822;4.324;2023-12-22T05:47:18;14.87;;;2.77;;
22435;SDS011;11385;50.822;4.324;2023-12-22T05:49:45;18.65;;;4.22;;
22435;SDS011;11385;50.822;4.324;2023-12-22T05:52:12;19.15;;;3.52;;
22435;SDS011;11385;50.822;4.324;2023-12-22T05:54:39;21.75;;;3.85;;
22435;SDS011;11385;50.822;4.324;2023-12-22T05:57:06;17.52;;;3.00;;
22435;SDS011;11385;50.822;4.324;2023-12-22T05:59:33;15.78;;;2.47;;
22435;SDS011;11385;50.822;4.324;2023-12-22T06:02:00;19.12;;;2.92;;
22435;SDS011;11385;50.822;4.324;2023-12-22T06:04:28;14.90;;;3.05;;
22435;SDS011;11385;50.822;4.324;2023-12-22T06:06:54;14.50;;;2.87;;
22435;SDS011;11385;50.822;4.324;2023-12-22T06:09:21;18.45;;;2.47;;
22435;SDS011;11385;50.822;4.324;2023-12-22T06:11:48;16.82;;;2.75;;
22435;SDS011;11385;50.822;4.324;2023-12-22T06:14:15;14.13;;;2.47;;
22435;SDS011;11385;50.822;4.324;2023-12-22T06:16:42;15.58;;;2.40;;
22435;SDS011;11385;50.822;4.324;2023-12-22T06:19:09;9.50;;;2.65;;
22435;SDS011;11385;50.822;4.324;2023-12-22T06:21:37;12.40;;;2.27;;
22435;SDS011;11385;50.822;4.324;2023-12-22T06:24:04;14.23;;;2.92;;
22435;SDS011;11385;50.822;4.324;2023-12-22T06:26:31;15.35;;;2.83;;
22435;SDS011;11385;50.822;4.324;2023-12-22T06:28:58;13.78;;;2.08;;
22435;SDS011;11385;50.822;4.324;2023-12-22T06:31:25;21.60;;;6.92;;
22435;SDS011;11385;50.822;4.324;2023-12-22T06:33:52;17.23;;;3.45;;
22435;SDS011;11385;50.822;4.324;2023-12-22T06:36:20;9.33;;;1.80;;
22435;SDS011;11385;50.822;4.324;2023-12-22T06:38:48;12.23;;;2.12;;
22435;SDS011;11385;50.822;4.324;2023-12-22T06:41:20;11.33;;;1.82;;
22435;SDS011;11385;50.822;4.324;2023-12-22T06:43:47;11.85;;;1.60;;
22435;SDS011;11385;50.822;4.324;2023-12-22T06:46:24;9.13;;;1.55;;
22435;SDS011;11385;50.822;4.324;2023-12-22T06:48:53;12.50;;;1.90;;
22435;SDS011;11385;50.822;4.324;2023-12-22T06:51:29;12.15;;;1.92;;
22435;SDS011;11385;50.822;4.324;2023-12-22T06:53:57;8.63;;;1.62;;
22435;SDS011;11385;50.822;4.324;2023-12-22T06:56:27;8.15;;;1.55;;
22435;SDS011;11385;50.822;4.324;2023-12-22T06:58:56;7.08;;;1.87;;
22435;SDS011;11385;50.822;4.324;2023-12-22T07:01:24;6.80;;;1.70;;
22435;SDS011;11385;50.822;4.324;2023-12-22T07:03:53;5.20;;;1.32;;
22435;SDS011;11385;50.822;4.324;2023-12-22T07:06:20;8.88;;;1.50;;
22435;SDS011;11385;50.822;4.324;2023-12-22T07:11:23;8.25;;;2.83;;
22435;SDS011;11385;50.822;4.324;2023-12-22T07:13:50;13.43;;;2.15;;
22435;SDS011;11385;50.822;4.324;2023-12-22T07:16:17;8.88;;;1.40;;
22435;SDS011;11385;50.822;4.324;2023-12-22T07:18:43;7.60;;;1.47;;
22435;SDS011;11385;50.822;4.324;2023-12-22T07:21:15;5.67;;;1.50;;
22435;SDS011;11385;50.822;4.324;2023-12-22T07:23:41;8.60;;;1.50;;
22435;SDS011;11385;50.822;4.324;2023-12-22T07:26:09;8.50;;;1.55;;
22435;SDS011;11385;50.822;4.324;2023-12-22T07:28:36;7.08;;;1.47;;
22435;SDS011;11385;50.822;4.324;2023-12-22T07:31:03;9.55;;;1.60;;
22435;SDS011;11385;50.822;4.324;2023-12-22T07:33:31;6.58;;;1.37;;
22435;SDS011;11385;50.822;4.324;2023-12-22T07:35:58;5.90;;;1.10;;
22435;SDS011;11385;50.822;4.324;2023-12-22T07:38:24;5.58;;;0.82;;
22435;SDS011;11385;50.822;4.324;2023-12-22T07:40:51;4.85;;;1.12;;
22435;SDS011;11385;50.822;4.324;2023-12-22T07:43:18;3.60;;;0.85;;
22435;SDS011;11385;50.822;4.324;2023-12-22T07:45:44;5.80;;;1.00;;
22435;SDS011;11385;50.822;4.324;2023-12-22T07:48:11;4.05;;;0.70;;
22435;SDS011;11385;50.822;4.324;2023-12-22T07:50:39;6.37;;;1.25;;
22435;SDS011;11385;50.822;4.324;2023-12-22T07:53:09;5.40;;;1.22;;
22435;SDS011;11385;50.822;4.324;2023-12-22T07:55:36;3.83;;;0.70;;
22435;SDS011;11385;50.822;4.324;2023-12-22T07:58:04;6.70;;;1.32;;
22435;SDS011;11385;50.822;4.324;2023-12-22T08:00:31;3.92;;;1.00;;
22435;SDS011;11385;50.822;4.324;2023-12-22T08:02:58;3.05;;;0.85;;
22435;SDS011;11385;50.822;4.324;2023-12-22T08:05:26;5.37;;;1.35;;
22435;SDS011;11385;50.822;4.324;2023-12-22T08:07:52;1.90;;;0.80;;
22435;SDS011;11385;50.822;4.324;2023-12-22T08:10:19;5.08;;;0.95;;
22435;SDS011;11385;50.822;4.324;2023-12-22T08:12:46;3.25;;;0.90;;
22435;SDS011;11385;50.822;4.324;2023-12-22T08:15:12;3.58;;;0.88;;
22435;SDS011;11385;50.822;4.324;2023-12-22T08:20:17;4.15;;;1.00;;
22435;SDS011;11385;50.822;4.324;2023-12-22T08:22:45;3.87;;;1.02;;
22435;SDS011;11385;50.822;4.324;2023-12-22T08:25:13;2.05;;;0.60;;
22435;SDS011;11385;50.822;4.324;2023-12-22T08:27:40;4.10;;;1.25;;
22435;SDS011;11385;50.822;4.324;2023-12-22T08:30:08;4.75;;;1.55;;
22435;SDS011;11385;50.822;4.324;2023-12-22T08:32:35;2.77;;;1.02;;
22435;SDS011;11385;50.822;4.324;2023-12-22T08:35:02;4.17;;;1.20;;
22435;SDS011;11385;50.822;4.324;2023-12-22T08:37:30;2.85;;;1.05;;
22435;SDS011;11385;50.822;4.324;2023-12-22T08:39:57;3.22;;;1.10;;
22435;SDS011;11385;50.822;4.324;2023-12-22T08:42:24;4.08;;;1.47;;
22435;SDS011;11385;50.822;4.324;2023-12-22T08:44:51;2.95;;;1.40;;
22435;SDS011;11385;50.822;4.324;2023-12-22T08:47:18;5.95;;;1.70;;
22435;SDS011;11385;50.822;4.324;2023-12-22T08:49:45;4.50;;;2.20;;
22435;SDS011;11385;50.822;4.324;2023-12-22T08:52:12;3.75;;;1.67;;
22435;SDS011;11385;50.822;4.324;2023-12-22T08:54:39;3.40;;;1.67;;
22435;SDS011;11385;50.822;4.324;2023-12-22T08:57:05;3.83;;;1.32;;
22435;SDS011;11385;50.822;4.324;2023-12-22T08:59:32;6.03;;;2.15;;
22435;SDS011;11385;50.822;4.324;2023-12-22T09:01:59;5.65;;;1.80;;
22435;SDS011;11385;50.822;4.324;2023-12-22T09:04:26;7.37;;;2.12;;
22435;SDS011;11385;50.822;4.324;2023-12-22T09:06:52;5.67;;;1.87;;
22435;SDS011;11385;50.822;4.324;2023-12-22T09:09:19;5.00;;;1.62;;
22435;SDS011;11385;50.822;4.324;2023-12-22T09:11:47;6.92;;;1.95;;
22435;SDS011;11385;50.822;4.324;2023-12-22T09:14:14;6.55;;;1.40;;
22435;SDS011;11385;50.822;4.324;2023-12-22T09:16:41;3.17;;;1.37;;
22435;SDS011;11385;50.822;4.324;2023-12-22T09:19:09;4.25;;;1.55;;
22435;SDS011;11385;50.822;4.324;2023-12-22T09:21:36;6.50;;;1.50;;
22435;SDS011;11385;50.822;4.324;2023-12-22T09:24:03;8.80;;;1.92;;
22435;SDS011;11385;50.822;4.324;2023-12-22T09:26:30;3.67;;;1.47;;
22435;SDS011;11385;50.822;4.324;2023-12-22T09:28:58;3.02;;;1.17;;
22435;SDS011;11385;50.822;4.324;2023-12-22T09:31:25;6.25;;;1.32;;
22435;SDS011;11385;50.822;4.324;2023-12-22T09:33:52;5.08;;;1.47;;
22435;SDS011;11385;50.822;4.324;2023-12-22T09:36:18;4.62;;;0.93;;
22435;SDS011;11385;50.822;4.324;2023-12-22T09:38:45;3.98;;;1.10;;
22435;SDS011;11385;50.822;4.324;2023-12-22T09:41:12;5.62;;;1.80;;
22435;SDS011;11385;50.822;4.324;2023-12-22T09:43:39;3.52;;;1.10;;
22435;SDS011;11385;50.822;4.324;2023-12-22T09:46:09;3.95;;;1.47;;
22435;SDS011;11385;50.822;4.324;2023-12-22T09:48:37;4.47;;;1.50;;
22435;SDS011;11385;50.822;4.324;2023-12-22T09:51:05;5.53;;;1.37;;
22435;SDS011;11385;50.822;4.324;2023-12-22T09:53:33;5.03;;;1.00;;
22435;SDS011;11385;50.822;4.324;2023-12-22T09:56:02;6.45;;;1.30;;
22435;SDS011;11385;50.822;4.324;2023-12-22T09:58:29;3.85;;;1.10;;
22435;SDS011;11385;50.822;4.324;2023-12-22T10:00:57;4.28;;;1.27;;
22435;SDS011;11385;50.822;4.324;2023-12-22T10:03:24;3.87;;;1.98;;
22435;SDS011;11385;50.822;4.324;2023-12-22T10:05:52;5.05;;;1.35;;
22435;SDS011;11385;50.822;4.324;2023-12-22T10:08:19;1.17;;;0.72;;
22435;SDS011;11385;50.822;4.324;2023-12-22T10:10:47;5.00;;;1.60;;
22435;SDS011;11385;50.822;4.324;2023-12-22T10:13:14;2.45;;;1.22;;
22435;SDS011;11385;50.822;4.324;2023-12-22T10:15:41;2.45;;;1.30;;
22435;SDS011;11385;50.822;4.324;2023-12-22T10:18:09;4.42;;;1.37;;
22435;SDS011;11385;50.822;4.324;2023-12-22T10:20:37;3.85;;;1.20;;
22435;SDS011;11385;50.822;4.324;2023-12-22T10:23:04;4.75;;;1.22;;
22435;SDS011;11385;50.822;4.324;2023-12-22T10:25:31;4.45;;;1.07;;
22435;SDS011;11385;50.822;4.324;2023-12-22T10:27:59;4.58;;;1.12;;
22435;SDS011;11385;50.822;4.324;2023-12-22T10:30:26;4.83;;;1.65;;
22435;SDS011;11385;50.822;4.324;2023-12-22T10:32:54;3.05;;;1.12;;
22435;SDS011;11385;50.822;4.324;2023-12-22T10:35:21;3.55;;;0.98;;
22435;SDS011;11385;50.822;4.324;2023-12-22T10:37:48;5.65;;;1.35;;
22435;SDS011;11385;50.822;4.324;2023-12-22T10:40:19;3.77;;;0.93;;
22435;SDS011;11385;50.822;4.324;2023-12-22T10:42:46;1.95;;;0.82;;
22435;SDS011;11385;50.822;4.324;2023-12-22T10:45:12;3.95;;;1.17;;
22435;SDS011;11385;50.822;4.324;2023-12-22T10:47:40;5.95;;;1.00;;
22435;SDS011;11385;50.822;4.324;2023-12-22T10:50:08;2.72;;;0.85;;
22435;SDS011;11385;50.822;4.324;2023-12-22T10:55:05;1.47;;;0.57;;
22435;SDS011;11385;50.822;4.324;2023-12-22T10:57:33;3.20;;;0.80;;
22435;SDS011;11385;50.822;4.324;2023-12-22T11:00:01;4.05;;;1.15;;
22435;SDS011;11385;50.822;4.324;2023-12-22T11:02:30;2.65;;;1.20;;
22435;SDS011;11385;50.822;4.324;2023-12-22T11:05:02;2.00;;;0.98;;
22435;SDS011;11385;50.822;4.324;2023-12-22T11:07:32;2.70;;;0.90;;
22435;SDS011;11385;50.822;4.324;2023-12-22T11:10:02;1.65;;;0.62;;
22435;SDS011;11385;50.822;4.324;2023-12-22T11:12:33;7.87;;;2.65;;
22435;SDS011;11385;50.822;4.324;2023-12-22T11:15:02;3.70;;;1.53;;
22435;SDS011;11385;50.822;4.324;2023-12-22T11:17:33;3.00;;;1.15;;
22435;SDS011;11385;50.822;4.324;2023-12-22T11:20:01;2.47;;;1.35;;
22435;SDS011;11385;50.822;4.324;2023-12-22T11:22:29;2.47;;;1.10;;
22435;SDS011;11385;50.822;4.324;2023-12-22T11:24:58;3.50;;;0.95;;
22435;SDS011;11385;50.822;4.324;2023-12-22T11:27:28;3.67;;;1.25;;
22435;SDS011;11385;50.822;4.324;2023-12-22T11:29:56;4.65;;;1.42;;
22435;SDS011;11385;50.822;4.324;2023-12-22T11:32:26;2.50;;;1.12;;
22435;SDS011;11385;50.822;4.324;2023-12-22T11:34:55;2.55;;;0.90;;
22435;SDS011;11385;50.822;4.324;2023-12-22T11:37:24;2.50;;;1.07;;
22435;SDS011;11385;50.822;4.324;2023-12-22T11:39:51;5.53;;;1.10;;
22435;SDS011;11385;50.822;4.324;2023-12-22T11:42:19;4.03;;;0.98;;
22435;SDS011;11385;50.822;4.324;2023-12-22T11:44:48;3.98;;;1.12;;
22435;SDS011;11385;50.822;4.324;2023-12-22T11:47:15;3.27;;;1.57;;
22435;SDS011;11385;50.822;4.324;2023-12-22T11:49:42;3.87;;;0.95;;
22435;SDS011;11385;50.822;4.324;2023-12-22T11:52:11;6.15;;;1.20;;
22435;SDS011;11385;50.822;4.324;2023-12-22T11:59:51;4.25;;;1.42;;
22435;SDS011;11385;50.822;4.324;2023-12-22T12:02:17;6.15;;;1.30;;
22435;SDS011;11385;50.822;4.324;2023-12-22T12:04:47;1.98;;;0.78;;
22435;SDS011;11385;50.822;4.324;2023-12-22T12:07:50;3.72;;;1.10;;
22435;SDS011;11385;50.822;4.324;2023-12-22T12:10:07;1.87;;;0.80;;
22435;SDS011;11385;50.822;4.324;2023-12-22T12:12:34;1.77;;;0.55;;
22435;SDS011;11385;50.822;4.324;2023-12-22T12:15:06;2.35;;;1.10;;
22435;SDS011;11385;50.822;4.324;2023-12-22T12:17:33;2.55;;;0.47;;
22435;SDS011;11385;50.822;4.324;2023-12-22T12:22:33;2.45;;;0.60;;
22435;SDS011;11385;50.822;4.324;2023-12-22T12:25:00;1.82;;;0.55;;
22435;SDS011;11385;50.822;4.324;2023-12-22T12:27:27;1.65;;;0.55;;
22435;SDS011;11385;50.822;4.324;2023-12-22T12:29:54;1.85;;;0.68;;
22435;SDS011;11385;50.822;4.324;2023-12-22T12:32:22;2.10;;;0.60;;
22435;SDS011;11385;50.822;4.324;2023-12-22T12:34:51;2.27;;;0.72;;
22435;SDS011;11385;50.822;4.324;2023-12-22T12:37:18;3.72;;;0.65;;
22435;SDS011;11385;50.822;4.324;2023-12-22T12:39:46;1.80;;;0.60;;
22435;SDS011;11385;50.822;4.324;2023-12-22T12:42:15;4.53;;;0.55;;
22435;SDS011;11385;50.822;4.324;2023-12-22T12:44:43;4.85;;;1.02;;
22435;SDS011;11385;50.822;4.324;2023-12-22T12:47:12;2.65;;;0.70;;
22435;SDS011;11385;50.822;4.324;2023-12-22T12:49:39;6.90;;;0.70;;
22435;SDS011;11385;50.822;4.324;2023-12-22T12:52:06;1.37;;;0.65;;
22435;SDS011;11385;50.822;4.324;2023-12-22T12:54:44;2.83;;;0.50;;
22435;SDS011;11385;50.822;4.324;2023-12-22T12:57:13;2.72;;;0.53;;
22435;SDS011;11385;50.822;4.324;2023-12-22T12:59:44;4.08;;;0.90;;
22435;SDS011;11385;50.822;4.324;2023-12-22T13:02:14;4.15;;;1.05;;
22435;SDS011;11385;50.822;4.324;2023-12-22T13:04:41;3.40;;;0.72;;
22435;SDS011;11385;50.822;4.324;2023-12-22T13:07:08;2.65;;;0.55;;
22435;SDS011;11385;50.822;4.324;2023-12-22T13:09:38;4.50;;;1.00;;
22435;SDS011;11385;50.822;4.324;2023-12-22T13:12:07;2.45;;;0.95;;
22435;SDS011;11385;50.822;4.324;2023-12-22T13:14:35;5.55;;;1.07;;
22435;SDS011;11385;50.822;4.324;2023-12-22T13:17:02;3.72;;;0.72;;
22435;SDS011;11385;50.822;4.324;2023-12-22T13:19:28;3.60;;;0.70;;
22435;SDS011;11385;50.822;4.324;2023-12-22T13:21:56;5.08;;;0.80;;
22435;SDS011;11385;50.822;4.324;2023-12-22T13:24:23;4.50;;;0.90;;
22435;SDS011;11385;50.822;4.324;2023-12-22T13:29:25;2.92;;;0.70;;
22435;SDS011;11385;50.822;4.324;2023-12-22T13:31:54;3.37;;;0.57;;
22435;SDS011;11385;50.822;4.324;2023-12-22T13:34:21;2.55;;;0.80;;
22435;SDS011;11385;50.822;4.324;2023-12-22T13:36:48;2.37;;;0.70;;
22435;SDS011;11385;50.822;4.324;2023-12-22T13:39:15;4.30;;;0.80;;
22435;SDS011;11385;50.822;4.324;2023-12-22T13:41:41;3.02;;;0.90;;
22435;SDS011;11385;50.822;4.324;2023-12-22T13:44:12;5.05;;;0.90;;
22435;SDS011;11385;50.822;4.324;2023-12-22T13:46:39;5.45;;;1.30;;
22435;SDS011;11385;50.822;4.324;2023-12-22T13:49:08;2.15;;;0.60;;
22435;SDS011;11385;50.822;4.324;2023-12-22T13:51:41;3.08;;;1.07;;
22435;SDS011;11385;50.822;4.324;2023-12-22T13:54:08;3.98;;;0.80;;
22435;SDS011;11385;50.822;4.324;2023-12-22T13:56:36;1.85;;;0.68;;
22435;SDS011;11385;50.822;4.324;2023-12-22T13:59:14;2.77;;;0.90;;
22435;SDS011;11385;50.822;4.324;2023-12-22T14:01:48;2.35;;;0.60;;
22435;SDS011;11385;50.822;4.324;2023-12-22T14:04:23;2.42;;;0.60;;
22435;SDS011;11385;50.822;4.324;2023-12-22T14:07:01;5.53;;;0.90;;
22435;SDS011;11385;50.822;4.324;2023-12-22T14:09:36;1.95;;;0.42;;
22435;SDS011;11385;50.822;4.324;2023-12-22T14:12:14;2.95;;;0.65;;
22435;SDS011;11385;50.822;4.324;2023-12-22T14:14:50;2.00;;;0.60;;
22435;SDS011;11385;50.822;4.324;2023-12-22T14:17:26;2.15;;;0.62;;
22435;SDS011;11385;50.822;4.324;2023-12-22T14:20:03;3.72;;;0.70;;
22435;SDS011;11385;50.822;4.324;2023-12-22T14:25:16;5.17;;;0.80;;
22435;SDS011;11385;50.822;4.324;2023-12-22T14:27:52;8.28;;;1.52;;
22435;SDS011;11385;50.822;4.324;2023-12-22T14:32:57;1.47;;;0.55;;
22435;SDS011;11385;50.822;4.324;2023-12-22T14:35:35;1.82;;;0.98;;
22435;SDS011;11385;50.822;4.324;2023-12-22T14:38:10;2.25;;;0.53;;
22435;SDS011;11385;50.822;4.324;2023-12-22T14:40:48;1.52;;;0.50;;
22435;SDS011;11385;50.822;4.324;2023-12-22T14:43:23;3.50;;;0.98;;
22435;SDS011;11385;50.822;4.324;2023-12-22T14:46:01;2.40;;;0.70;;
22435;SDS011;11385;50.822;4.324;2023-12-22T14:48:36;3.12;;;0.55;;
22435;SDS011;11385;50.822;4.324;2023-12-22T14:51:11;6.92;;;0.80;;
22435;SDS011;11385;50.822;4.324;2023-12-22T14:53:46;1.10;;;0.47;;
22435;SDS011;11385;50.822;4.324;2023-12-22T14:56:21;3.25;;;0.70;;
22435;SDS011;11385;50.822;4.324;2023-12-22T14:58:57;3.80;;;0.80;;
22435;SDS011;11385;50.822;4.324;2023-12-22T15:01:35;5.58;;;0.80;;
22435;SDS011;11385;50.822;4.324;2023-12-22T15:04:13;4.67;;;0.80;;
22435;SDS011;11385;50.822;4.324;2023-12-22T15:06:43;2.45;;;0.70;;
22435;SDS011;11385;50.822;4.324;2023-12-22T15:09:12;0.80;;;0.40;;
22435;SDS011;11385;50.822;4.324;2023-12-22T15:11:41;3.02;;;1.57;;